sensor_id;sensor_type;location;lat;lon;timestamp;P1;durP1;ratioP1;P2;durP2;ratioP2
8232;SDS011;4157;48.074;9.952;2022-07-23T00:00:49;8.70;;;6.03;;
8232;SDS011;4157;48.074;9.952;2022-07-23T00:03:17;8.80;;;6.47;;
8232;SDS011;4157;48.074;9.952;2022-07-23T00:05:45;12.20;;;6.78;;
8232;SDS011;4157;48.074;9.952;2022-07-23T00:08:13;8.23;;;6.55;;
8232;SDS011;4157;48.074;9.952;2022-07-23T00:10:40;8.23;;;6.57;;
8232;SDS011;4157;48.074;9.952;2022-07-23T00:13:08;10.05;;;7.18;;
8232;SDS011;4157;48.074;9.952;2022-07-23T00:15:38;8.80;;;7.45;;
8232;SDS011;4157;48.074;9.952;2022-07-23T00:18:05;8.10;;;6.53;;
8232;SDS011;4157;48.074;9.952;2022-07-23T00:20:33;9.00;;;6.72;;
8232;SDS011;4157;48.074;9.952;2022-07-23T00:23:01;10.15;;;7.47;;
8232;SDS011;4157;48.074;9.952;2022-07-23T00:25:29;9.90;;;6.80;;
8232;SDS011;4157;48.074;9.952;2022-07-23T00:27:57;8.57;;;6.85;;
8232;SDS011;4157;48.074;9.952;2022-07-23T00:30:25;10.63;;;7.32;;
8232;SDS011;4157;48.074;9.952;2022-07-23T00:32:56;10.27;;;7.13;;
8232;SDS011;4157;48.074;9.952;2022-07-23T00:35:25;8.40;;;6.68;;
8232;SDS011;4157;48.074;9.952;2022-07-23T00:37:53;10.13;;;7.55;;
8232;SDS011;4157;48.074;9.952;2022-07-23T00:40:21;8.82;;;7.22;;
8232;SDS011;4157;48.074;9.952;2022-07-23T00:42:49;7.43;;;6.10;;
8232;SDS011;4157;48.074;9.952;2022-07-23T00:45:17;9.70;;;6.68;;
8232;SDS011;4157;48.074;9.952;2022-07-23T00:47:45;9.52;;;6.53;;
8232;SDS011;4157;48.074;9.952;2022-07-23T00:50:14;9.90;;;7.25;;
8232;SDS011;4157;48.074;9.952;2022-07-23T00:52:42;10.25;;;7.03;;
8232;SDS011;4157;48.074;9.952;2022-07-23T00:55:10;9.20;;;6.60;;
8232;SDS011;4157;48.074;9.952;2022-07-23T00:57:39;11.45;;;7.60;;
8232;SDS011;4157;48.074;9.952;2022-07-23T01:00:09;10.23;;;6.80;;
8232;SDS011;4157;48.074;9.952;2022-07-23T01:02:37;9.18;;;7.07;;
8232;SDS011;4157;48.074;9.952;2022-07-23T01:05:06;10.07;;;7.10;;
8232;SDS011;4157;48.074;9.952;2022-07-23T01:07:35;10.40;;;6.93;;
8232;SDS011;4157;48.074;9.952;2022-07-23T01:10:03;9.18;;;6.85;;
8232;SDS011;4157;48.074;9.952;2022-07-23T01:12:51;11.27;;;7.70;;
8232;SDS011;4157;48.074;9.952;2022-07-23T01:15:19;10.13;;;7.32;;
8232;SDS011;4157;48.074;9.952;2022-07-23T01:17:47;11.82;;;7.50;;
8232;SDS011;4157;48.074;9.952;2022-07-23T01:20:15;12.05;;;7.30;;
8232;SDS011;4157;48.074;9.952;2022-07-23T01:22:45;9.30;;;7.25;;
8232;SDS011;4157;48.074;9.952;2022-07-23T01:25:13;9.55;;;6.80;;
8232;SDS011;4157;48.074;9.952;2022-07-23T01:27:47;9.20;;;6.53;;
8232;SDS011;4157;48.074;9.952;2022-07-23T01:30:15;10.15;;;7.22;;
8232;SDS011;4157;48.074;9.952;2022-07-23T01:32:43;10.13;;;6.80;;
8232;SDS011;4157;48.074;9.952;2022-07-23T01:35:11;9.57;;;6.80;;
8232;SDS011;4157;48.074;9.952;2022-07-23T01:37:40;8.43;;;6.20;;
8232;SDS011;4157;48.074;9.952;2022-07-23T01:40:09;9.05;;;7.00;;
8232;SDS011;4157;48.074;9.952;2022-07-23T01:42:37;8.18;;;6.47;;
8232;SDS011;4157;48.074;9.952;2022-07-23T01:45:07;10.27;;;6.57;;
8232;SDS011;4157;48.074;9.952;2022-07-23T01:47:37;8.18;;;6.65;;
8232;SDS011;4157;48.074;9.952;2022-07-23T01:50:05;10.38;;;6.93;;
8232;SDS011;4157;48.074;9.952;2022-07-23T01:53:00;9.70;;;6.60;;
8232;SDS011;4157;48.074;9.952;2022-07-23T01:55:30;7.90;;;5.90;;
8232;SDS011;4157;48.074;9.952;2022-07-23T01:57:58;8.93;;;6.88;;
8232;SDS011;4157;48.074;9.952;2022-07-23T02:00:28;7.65;;;6.25;;
8232;SDS011;4157;48.074;9.952;2022-07-23T02:02:56;8.15;;;6.07;;
8232;SDS011;4157;48.074;9.952;2022-07-23T02:05:24;8.27;;;6.63;;
8232;SDS011;4157;48.074;9.952;2022-07-23T02:07:54;8.27;;;6.45;;
8232;SDS011;4157;48.074;9.952;2022-07-23T02:10:22;8.65;;;5.97;;
8232;SDS011;4157;48.074;9.952;2022-07-23T02:12:51;9.82;;;7.00;;
8232;SDS011;4157;48.074;9.952;2022-07-23T02:15:19;7.95;;;6.55;;
8232;SDS011;4157;48.074;9.952;2022-07-23T02:17:48;9.00;;;6.53;;
8232;SDS011;4157;48.074;9.952;2022-07-23T02:20:15;10.10;;;6.43;;
8232;SDS011;4157;48.074;9.952;2022-07-23T02:22:43;8.23;;;5.97;;
8232;SDS011;4157;48.074;9.952;2022-07-23T02:25:11;8.50;;;6.28;;
8232;SDS011;4157;48.074;9.952;2022-07-23T02:27:40;8.27;;;5.82;;
8232;SDS011;4157;48.074;9.952;2022-07-23T02:30:10;7.68;;;6.07;;
8232;SDS011;4157;48.074;9.952;2022-07-23T02:32:38;8.40;;;6.07;;
8232;SDS011;4157;48.074;9.952;2022-07-23T02:35:09;8.02;;;5.95;;
8232;SDS011;4157;48.074;9.952;2022-07-23T02:37:37;8.18;;;5.75;;
8232;SDS011;4157;48.074;9.952;2022-07-23T02:40:05;8.38;;;6.05;;
8232;SDS011;4157;48.074;9.952;2022-07-23T02:42:36;9.15;;;6.07;;
8232;SDS011;4157;48.074;9.952;2022-07-23T02:45:04;8.10;;;6.07;;
8232;SDS011;4157;48.074;9.952;2022-07-23T02:47:34;7.03;;;5.40;;
8232;SDS011;4157;48.074;9.952;2022-07-23T02:50:02;7.35;;;5.40;;
8232;SDS011;4157;48.074;9.952;2022-07-23T02:52:31;8.30;;;6.13;;
8232;SDS011;4157;48.074;9.952;2022-07-23T02:54:58;8.57;;;5.47;;
8232;SDS011;4157;48.074;9.952;2022-07-23T02:57:26;6.75;;;5.45;;
8232;SDS011;4157;48.074;9.952;2022-07-23T02:59:56;8.05;;;5.85;;
8232;SDS011;4157;48.074;9.952;2022-07-23T03:02:24;6.97;;;5.57;;
8232;SDS011;4157;48.074;9.952;2022-07-23T03:04:53;9.60;;;5.70;;
8232;SDS011;4157;48.074;9.952;2022-07-23T03:07:21;7.53;;;5.75;;
8232;SDS011;4157;48.074;9.952;2022-07-23T03:09:49;7.68;;;5.18;;
8232;SDS011;4157;48.074;9.952;2022-07-23T03:12:17;7.40;;;5.50;;
8232;SDS011;4157;48.074;9.952;2022-07-23T03:14:45;7.85;;;4.75;;
8232;SDS011;4157;48.074;9.952;2022-07-23T03:17:12;8.13;;;5.25;;
8232;SDS011;4157;48.074;9.952;2022-07-23T03:19:40;6.57;;;5.25;;
8232;SDS011;4157;48.074;9.952;2022-07-23T03:22:10;7.43;;;5.07;;
8232;SDS011;4157;48.074;9.952;2022-07-23T03:24:38;6.75;;;5.00;;
8232;SDS011;4157;48.074;9.952;2022-07-23T03:27:27;7.85;;;4.93;;
8232;SDS011;4157;48.074;9.952;2022-07-23T03:29:56;8.75;;;5.47;;
8232;SDS011;4157;48.074;9.952;2022-07-23T03:32:24;6.53;;;4.22;;
8232;SDS011;4157;48.074;9.952;2022-07-23T03:34:52;5.78;;;4.50;;
8232;SDS011;4157;48.074;9.952;2022-07-23T03:37:21;6.88;;;4.07;;
8232;SDS011;4157;48.074;9.952;2022-07-23T03:39:49;6.00;;;4.03;;
8232;SDS011;4157;48.074;9.952;2022-07-23T03:42:17;6.45;;;4.38;;
8232;SDS011;4157;48.074;9.952;2022-07-23T03:44:46;6.70;;;3.97;;
8232;SDS011;4157;48.074;9.952;2022-07-23T03:47:14;7.00;;;4.45;;
8232;SDS011;4157;48.074;9.952;2022-07-23T03:49:43;5.40;;;3.85;;
8232;SDS011;4157;48.074;9.952;2022-07-23T03:52:11;5.57;;;3.90;;
8232;SDS011;4157;48.074;9.952;2022-07-23T03:54:40;6.20;;;4.03;;
8232;SDS011;4157;48.074;9.952;2022-07-23T03:57:08;5.25;;;3.92;;
8232;SDS011;4157;48.074;9.952;2022-07-23T03:59:36;6.93;;;4.30;;
8232;SDS011;4157;48.074;9.952;2022-07-23T04:02:04;5.55;;;4.00;;
8232;SDS011;4157;48.074;9.952;2022-07-23T04:04:32;8.02;;;4.15;;
8232;SDS011;4157;48.074;9.952;2022-07-23T04:07:00;6.63;;;3.90;;
8232;SDS011;4157;48.074;9.952;2022-07-23T04:09:29;5.90;;;4.15;;
8232;SDS011;4157;48.074;9.952;2022-07-23T04:11:58;6.30;;;3.78;;
8232;SDS011;4157;48.074;9.952;2022-07-23T04:14:26;6.15;;;3.90;;
8232;SDS011;4157;48.074;9.952;2022-07-23T04:16:54;5.80;;;3.95;;
8232;SDS011;4157;48.074;9.952;2022-07-23T04:19:22;5.72;;;4.28;;
8232;SDS011;4157;48.074;9.952;2022-07-23T04:21:58;7.00;;;4.30;;
8232;SDS011;4157;48.074;9.952;2022-07-23T04:24:26;6.00;;;4.10;;
8232;SDS011;4157;48.074;9.952;2022-07-23T04:26:54;6.70;;;4.30;;
8232;SDS011;4157;48.074;9.952;2022-07-23T04:29:23;7.10;;;4.20;;
8232;SDS011;4157;48.074;9.952;2022-07-23T04:31:51;5.57;;;4.22;;
8232;SDS011;4157;48.074;9.952;2022-07-23T04:34:19;6.72;;;4.60;;
8232;SDS011;4157;48.074;9.952;2022-07-23T04:36:48;8.75;;;5.25;;
8232;SDS011;4157;48.074;9.952;2022-07-23T04:39:15;6.90;;;5.00;;
8232;SDS011;4157;48.074;9.952;2022-07-23T04:41:43;6.70;;;4.70;;
8232;SDS011;4157;48.074;9.952;2022-07-23T04:44:12;7.13;;;4.97;;
8232;SDS011;4157;48.074;9.952;2022-07-23T04:46:42;7.82;;;5.68;;
8232;SDS011;4157;48.074;9.952;2022-07-23T04:49:10;8.15;;;5.55;;
8232;SDS011;4157;48.074;9.952;2022-07-23T04:51:38;8.57;;;5.43;;
8232;SDS011;4157;48.074;9.952;2022-07-23T04:54:06;6.95;;;4.95;;
8232;SDS011;4157;48.074;9.952;2022-07-23T04:56:34;8.30;;;5.10;;
8232;SDS011;4157;48.074;9.952;2022-07-23T04:59:02;6.38;;;5.05;;
8232;SDS011;4157;48.074;9.952;2022-07-23T05:01:29;8.32;;;5.53;;
8232;SDS011;4157;48.074;9.952;2022-07-23T05:03:59;6.30;;;5.10;;
8232;SDS011;4157;48.074;9.952;2022-07-23T05:06:31;7.07;;;5.20;;
8232;SDS011;4157;48.074;9.952;2022-07-23T05:08:58;6.53;;;5.25;;
8232;SDS011;4157;48.074;9.952;2022-07-23T05:11:26;7.50;;;5.57;;
8232;SDS011;4157;48.074;9.952;2022-07-23T05:13:54;8.75;;;5.65;;
8232;SDS011;4157;48.074;9.952;2022-07-23T05:16:23;7.72;;;5.90;;
8232;SDS011;4157;48.074;9.952;2022-07-23T05:18:53;9.02;;;5.60;;
8232;SDS011;4157;48.074;9.952;2022-07-23T05:21:22;9.48;;;5.38;;
8232;SDS011;4157;48.074;9.952;2022-07-23T05:23:50;8.52;;;5.63;;
8232;SDS011;4157;48.074;9.952;2022-07-23T05:26:18;10.35;;;6.18;;
8232;SDS011;4157;48.074;9.952;2022-07-23T05:28:45;7.00;;;6.30;;
8232;SDS011;4157;48.074;9.952;2022-07-23T05:31:13;9.63;;;6.47;;
8232;SDS011;4157;48.074;9.952;2022-07-23T05:33:41;8.27;;;6.40;;
8232;SDS011;4157;48.074;9.952;2022-07-23T05:36:09;7.63;;;5.20;;
8232;SDS011;4157;48.074;9.952;2022-07-23T05:38:48;7.00;;;4.95;;
8232;SDS011;4157;48.074;9.952;2022-07-23T05:41:16;6.90;;;5.25;;
8232;SDS011;4157;48.074;9.952;2022-07-23T05:43:44;8.18;;;5.93;;
8232;SDS011;4157;48.074;9.952;2022-07-23T05:46:14;6.63;;;5.25;;
8232;SDS011;4157;48.074;9.952;2022-07-23T05:48:45;9.50;;;5.50;;
8232;SDS011;4157;48.074;9.952;2022-07-23T05:51:46;9.07;;;5.97;;
8232;SDS011;4157;48.074;9.952;2022-07-23T05:54:20;7.38;;;5.80;;
8232;SDS011;4157;48.074;9.952;2022-07-23T05:56:48;9.68;;;5.97;;
8232;SDS011;4157;48.074;9.952;2022-07-23T05:59:16;9.27;;;6.18;;
8232;SDS011;4157;48.074;9.952;2022-07-23T06:01:44;11.52;;;7.05;;
8232;SDS011;4157;48.074;9.952;2022-07-23T06:04:12;9.05;;;6.07;;
8232;SDS011;4157;48.074;9.952;2022-07-23T06:06:49;7.63;;;5.43;;
8232;SDS011;4157;48.074;9.952;2022-07-23T06:09:16;8.30;;;6.05;;
8232;SDS011;4157;48.074;9.952;2022-07-23T06:11:46;9.07;;;6.00;;
8232;SDS011;4157;48.074;9.952;2022-07-23T06:14:13;7.63;;;6.05;;
8232;SDS011;4157;48.074;9.952;2022-07-23T06:16:48;7.53;;;6.40;;
8232;SDS011;4157;48.074;9.952;2022-07-23T06:19:16;8.60;;;6.47;;
8232;SDS011;4157;48.074;9.952;2022-07-23T06:21:45;8.43;;;6.75;;
8232;SDS011;4157;48.074;9.952;2022-07-23T06:24:14;8.45;;;6.50;;
8232;SDS011;4157;48.074;9.952;2022-07-23T06:26:42;9.65;;;6.93;;
8232;SDS011;4157;48.074;9.952;2022-07-23T06:29:12;10.00;;;6.80;;
8232;SDS011;4157;48.074;9.952;2022-07-23T06:31:41;10.40;;;7.47;;
8232;SDS011;4157;48.074;9.952;2022-07-23T06:34:09;9.23;;;6.80;;
8232;SDS011;4157;48.074;9.952;2022-07-23T06:36:37;11.00;;;7.53;;
8232;SDS011;4157;48.074;9.952;2022-07-23T06:39:05;8.60;;;6.70;;
8232;SDS011;4157;48.074;9.952;2022-07-23T06:41:33;11.48;;;6.85;;
8232;SDS011;4157;48.074;9.952;2022-07-23T06:44:01;10.23;;;7.40;;
8232;SDS011;4157;48.074;9.952;2022-07-23T06:46:33;8.52;;;6.47;;
8232;SDS011;4157;48.074;9.952;2022-07-23T06:49:01;8.25;;;6.45;;
8232;SDS011;4157;48.074;9.952;2022-07-23T06:51:29;10.40;;;7.20;;
8232;SDS011;4157;48.074;9.952;2022-07-23T06:54:00;9.60;;;7.05;;
8232;SDS011;4157;48.074;9.952;2022-07-23T06:56:28;8.02;;;6.55;;
8232;SDS011;4157;48.074;9.952;2022-07-23T06:58:56;9.23;;;6.90;;
8232;SDS011;4157;48.074;9.952;2022-07-23T07:01:26;8.30;;;6.22;;
8232;SDS011;4157;48.074;9.952;2022-07-23T07:03:55;9.57;;;6.60;;
8232;SDS011;4157;48.074;9.952;2022-07-23T07:06:23;9.23;;;6.85;;
8232;SDS011;4157;48.074;9.952;2022-07-23T07:08:50;9.35;;;6.60;;
8232;SDS011;4157;48.074;9.952;2022-07-23T07:11:18;8.63;;;7.07;;
8232;SDS011;4157;48.074;9.952;2022-07-23T07:13:46;11.05;;;7.68;;
8232;SDS011;4157;48.074;9.952;2022-07-23T07:16:14;10.05;;;6.78;;
8232;SDS011;4157;48.074;9.952;2022-07-23T07:18:42;9.00;;;6.82;;
8232;SDS011;4157;48.074;9.952;2022-07-23T07:21:11;7.75;;;6.57;;
8232;SDS011;4157;48.074;9.952;2022-07-23T07:23:38;9.60;;;7.40;;
8232;SDS011;4157;48.074;9.952;2022-07-23T07:26:06;8.60;;;7.25;;
8232;SDS011;4157;48.074;9.952;2022-07-23T07:28:34;8.75;;;7.07;;
8232;SDS011;4157;48.074;9.952;2022-07-23T07:31:02;9.35;;;7.03;;
8232;SDS011;4157;48.074;9.952;2022-07-23T07:33:30;8.73;;;6.75;;
8232;SDS011;4157;48.074;9.952;2022-07-23T07:35:58;8.93;;;6.97;;
8232;SDS011;4157;48.074;9.952;2022-07-23T07:38:27;11.20;;;7.65;;
8232;SDS011;4157;48.074;9.952;2022-07-23T07:40:55;8.43;;;7.15;;
8232;SDS011;4157;48.074;9.952;2022-07-23T07:43:23;8.73;;;6.50;;
8232;SDS011;4157;48.074;9.952;2022-07-23T07:45:51;9.95;;;6.70;;
8232;SDS011;4157;48.074;9.952;2022-07-23T07:48:18;7.93;;;6.57;;
8232;SDS011;4157;48.074;9.952;2022-07-23T07:50:46;8.18;;;6.57;;
8232;SDS011;4157;48.074;9.952;2022-07-23T07:53:14;8.60;;;7.13;;
8232;SDS011;4157;48.074;9.952;2022-07-23T07:55:43;9.40;;;6.88;;
8232;SDS011;4157;48.074;9.952;2022-07-23T07:58:11;7.78;;;6.57;;
8232;SDS011;4157;48.074;9.952;2022-07-23T08:00:39;10.13;;;7.10;;
8232;SDS011;4157;48.074;9.952;2022-07-23T08:03:07;10.15;;;7.30;;
8232;SDS011;4157;48.074;9.952;2022-07-23T08:05:34;9.02;;;7.22;;
8232;SDS011;4157;48.074;9.952;2022-07-23T08:08:02;8.23;;;6.63;;
8232;SDS011;4157;48.074;9.952;2022-07-23T08:10:30;6.97;;;5.85;;
8232;SDS011;4157;48.074;9.952;2022-07-23T08:12:59;9.48;;;7.47;;
8232;SDS011;4157;48.074;9.952;2022-07-23T08:15:28;8.18;;;6.80;;
8232;SDS011;4157;48.074;9.952;2022-07-23T08:17:56;8.88;;;6.55;;
8232;SDS011;4157;48.074;9.952;2022-07-23T08:20:24;9.05;;;7.07;;
8232;SDS011;4157;48.074;9.952;2022-07-23T08:22:54;10.70;;;6.78;;
8232;SDS011;4157;48.074;9.952;2022-07-23T08:25:24;8.00;;;6.50;;
8232;SDS011;4157;48.074;9.952;2022-07-23T08:27:52;9.50;;;6.30;;
8232;SDS011;4157;48.074;9.952;2022-07-23T08:30:21;7.20;;;6.03;;
8232;SDS011;4157;48.074;9.952;2022-07-23T08:32:50;8.85;;;5.80;;
8232;SDS011;4157;48.074;9.952;2022-07-23T08:35:21;6.57;;;5.13;;
8232;SDS011;4157;48.074;9.952;2022-07-23T08:37:49;7.75;;;5.55;;
8232;SDS011;4157;48.074;9.952;2022-07-23T08:40:18;7.13;;;5.82;;
8232;SDS011;4157;48.074;9.952;2022-07-23T08:42:47;8.52;;;5.50;;
8232;SDS011;4157;48.074;9.952;2022-07-23T08:45:15;7.95;;;5.70;;
8232;SDS011;4157;48.074;9.952;2022-07-23T08:47:45;9.05;;;6.25;;
8232;SDS011;4157;48.074;9.952;2022-07-23T08:50:13;8.30;;;6.13;;
8232;SDS011;4157;48.074;9.952;2022-07-23T08:52:41;7.78;;;6.28;;
8232;SDS011;4157;48.074;9.952;2022-07-23T08:55:08;8.88;;;6.18;;
8232;SDS011;4157;48.074;9.952;2022-07-23T08:57:36;7.68;;;5.57;;
8232;SDS011;4157;48.074;9.952;2022-07-23T09:00:05;8.98;;;6.38;;
8232;SDS011;4157;48.074;9.952;2022-07-23T09:02:38;7.93;;;6.32;;
8232;SDS011;4157;48.074;9.952;2022-07-23T09:05:08;8.55;;;7.10;;
8232;SDS011;4157;48.074;9.952;2022-07-23T09:07:37;10.20;;;7.60;;
8232;SDS011;4157;48.074;9.952;2022-07-23T09:10:06;9.25;;;6.75;;
8232;SDS011;4157;48.074;9.952;2022-07-23T09:12:34;8.43;;;6.68;;
8232;SDS011;4157;48.074;9.952;2022-07-23T09:15:05;11.15;;;6.90;;
8232;SDS011;4157;48.074;9.952;2022-07-23T09:17:37;10.43;;;7.00;;
8232;SDS011;4157;48.074;9.952;2022-07-23T09:20:10;9.60;;;6.82;;
8232;SDS011;4157;48.074;9.952;2022-07-23T09:22:38;8.50;;;6.57;;
8232;SDS011;4157;48.074;9.952;2022-07-23T09:25:07;9.50;;;6.70;;
8232;SDS011;4157;48.074;9.952;2022-07-23T09:27:46;11.23;;;7.28;;
8232;SDS011;4157;48.074;9.952;2022-07-23T09:30:13;9.77;;;7.43;;
8232;SDS011;4157;48.074;9.952;2022-07-23T09:32:42;7.78;;;6.72;;
8232;SDS011;4157;48.074;9.952;2022-07-23T09:35:11;10.63;;;7.10;;
8232;SDS011;4157;48.074;9.952;2022-07-23T09:37:39;11.65;;;8.27;;
8232;SDS011;4157;48.074;9.952;2022-07-23T09:40:07;8.75;;;7.07;;
8232;SDS011;4157;48.074;9.952;2022-07-23T09:42:37;8.60;;;7.47;;
8232;SDS011;4157;48.074;9.952;2022-07-23T09:45:06;10.52;;;8.05;;
8232;SDS011;4157;48.074;9.952;2022-07-23T09:47:38;9.15;;;7.50;;
8232;SDS011;4157;48.074;9.952;2022-07-23T09:50:06;10.88;;;8.10;;
8232;SDS011;4157;48.074;9.952;2022-07-23T09:52:43;10.13;;;7.53;;
8232;SDS011;4157;48.074;9.952;2022-07-23T09:55:12;12.07;;;7.88;;
8232;SDS011;4157;48.074;9.952;2022-07-23T09:57:40;9.73;;;8.10;;
8232;SDS011;4157;48.074;9.952;2022-07-23T10:00:09;8.77;;;7.18;;
8232;SDS011;4157;48.074;9.952;2022-07-23T10:02:38;8.60;;;7.10;;
8232;SDS011;4157;48.074;9.952;2022-07-23T10:05:24;9.15;;;7.57;;
8232;SDS011;4157;48.074;9.952;2022-07-23T10:08:14;9.20;;;7.63;;
8232;SDS011;4157;48.074;9.952;2022-07-23T10:11:19;8.93;;;7.50;;
8232;SDS011;4157;48.074;9.952;2022-07-23T10:13:58;9.68;;;7.75;;
8232;SDS011;4157;48.074;9.952;2022-07-23T10:16:37;9.77;;;6.88;;
8232;SDS011;4157;48.074;9.952;2022-07-23T10:19:05;9.80;;;7.40;;
8232;SDS011;4157;48.074;9.952;2022-07-23T10:21:34;11.65;;;7.00;;
8232;SDS011;4157;48.074;9.952;2022-07-23T10:24:08;9.40;;;6.60;;
8232;SDS011;4157;48.074;9.952;2022-07-23T10:26:38;9.73;;;7.03;;
8232;SDS011;4157;48.074;9.952;2022-07-23T10:29:11;10.88;;;7.55;;
8232;SDS011;4157;48.074;9.952;2022-07-23T10:31:42;8.55;;;7.25;;
8232;SDS011;4157;48.074;9.952;2022-07-23T10:34:16;9.20;;;7.65;;
8232;SDS011;4157;48.074;9.952;2022-07-23T10:36:47;9.68;;;7.65;;
8232;SDS011;4157;48.074;9.952;2022-07-23T10:39:19;9.45;;;7.95;;
8232;SDS011;4157;48.074;9.952;2022-07-23T10:41:48;10.35;;;7.45;;
8232;SDS011;4157;48.074;9.952;2022-07-23T10:44:16;9.05;;;8.13;;
8232;SDS011;4157;48.074;9.952;2022-07-23T10:46:55;8.68;;;7.47;;
8232;SDS011;4157;48.074;9.952;2022-07-23T10:49:29;9.02;;;7.43;;
8232;SDS011;4157;48.074;9.952;2022-07-23T10:54:46;11.02;;;7.68;;
8232;SDS011;4157;48.074;9.952;2022-07-23T10:57:16;10.40;;;8.05;;
8232;SDS011;4157;48.074;9.952;2022-07-23T11:02:33;9.90;;;7.68;;
8232;SDS011;4157;48.074;9.952;2022-07-23T11:05:03;9.43;;;7.57;;
8232;SDS011;4157;48.074;9.952;2022-07-23T11:07:31;9.75;;;7.82;;
8232;SDS011;4157;48.074;9.952;2022-07-23T11:10:01;10.73;;;8.13;;
8232;SDS011;4157;48.074;9.952;2022-07-23T11:12:32;10.25;;;7.78;;
8232;SDS011;4157;48.074;9.952;2022-07-23T11:15:01;10.10;;;7.47;;
8232;SDS011;4157;48.074;9.952;2022-07-23T11:17:30;10.23;;;7.90;;
8232;SDS011;4157;48.074;9.952;2022-07-23T11:20:15;10.02;;;7.90;;
8232;SDS011;4157;48.074;9.952;2022-07-23T11:22:47;10.27;;;7.57;;
8232;SDS011;4157;48.074;9.952;2022-07-23T11:25:30;9.13;;;7.63;;
8232;SDS011;4157;48.074;9.952;2022-07-23T11:28:07;11.30;;;7.70;;
8232;SDS011;4157;48.074;9.952;2022-07-23T11:30:39;10.65;;;7.60;;
8232;SDS011;4157;48.074;9.952;2022-07-23T11:33:17;10.43;;;7.80;;
8232;SDS011;4157;48.074;9.952;2022-07-23T11:35:46;9.52;;;7.28;;
8232;SDS011;4157;48.074;9.952;2022-07-23T11:38:15;9.13;;;7.13;;
8232;SDS011;4157;48.074;9.952;2022-07-23T11:40:45;9.68;;;7.55;;
8232;SDS011;4157;48.074;9.952;2022-07-23T11:43:14;9.35;;;7.38;;
8232;SDS011;4157;48.074;9.952;2022-07-23T11:45:42;10.32;;;7.75;;
8232;SDS011;4157;48.074;9.952;2022-07-23T11:48:15;8.57;;;6.95;;
8232;SDS011;4157;48.074;9.952;2022-07-23T11:50:44;9.35;;;7.32;;
8232;SDS011;4157;48.074;9.952;2022-07-23T11:53:12;8.95;;;7.72;;
8232;SDS011;4157;48.074;9.952;2022-07-23T11:55:40;11.57;;;8.00;;
8232;SDS011;4157;48.074;9.952;2022-07-23T11:58:09;11.35;;;8.35;;
8232;SDS011;4157;48.074;9.952;2022-07-23T12:00:39;10.18;;;7.13;;
8232;SDS011;4157;48.074;9.952;2022-07-23T12:03:08;9.25;;;7.75;;
8232;SDS011;4157;48.074;9.952;2022-07-23T12:05:36;10.88;;;8.77;;
8232;SDS011;4157;48.074;9.952;2022-07-23T12:08:05;9.35;;;7.78;;
8232;SDS011;4157;48.074;9.952;2022-07-23T12:10:34;8.50;;;7.25;;
8232;SDS011;4157;48.074;9.952;2022-07-23T12:13:03;11.38;;;7.80;;
8232;SDS011;4157;48.074;9.952;2022-07-23T12:15:34;13.40;;;8.32;;
8232;SDS011;4157;48.074;9.952;2022-07-23T12:18:04;9.70;;;8.70;;
8232;SDS011;4157;48.074;9.952;2022-07-23T12:20:34;9.60;;;8.43;;
8232;SDS011;4157;48.074;9.952;2022-07-23T12:23:03;9.23;;;7.70;;
8232;SDS011;4157;48.074;9.952;2022-07-23T12:25:32;9.32;;;8.40;;
8232;SDS011;4157;48.074;9.952;2022-07-23T12:28:01;10.32;;;8.13;;
8232;SDS011;4157;48.074;9.952;2022-07-23T12:30:31;8.65;;;7.60;;
8232;SDS011;4157;48.074;9.952;2022-07-23T12:33:00;10.77;;;8.05;;
8232;SDS011;4157;48.074;9.952;2022-07-23T12:35:33;11.40;;;8.63;;
8232;SDS011;4157;48.074;9.952;2022-07-23T12:38:03;11.55;;;8.88;;
8232;SDS011;4157;48.074;9.952;2022-07-23T12:40:32;10.10;;;8.98;;
8232;SDS011;4157;48.074;9.952;2022-07-23T12:43:01;9.50;;;8.18;;
8232;SDS011;4157;48.074;9.952;2022-07-23T12:45:41;10.73;;;7.72;;
8232;SDS011;4157;48.074;9.952;2022-07-23T12:48:15;9.93;;;8.27;;
8232;SDS011;4157;48.074;9.952;2022-07-23T12:50:44;9.10;;;7.82;;
8232;SDS011;4157;48.074;9.952;2022-07-23T12:53:12;9.20;;;7.60;;
8232;SDS011;4157;48.074;9.952;2022-07-23T12:55:42;9.60;;;8.00;;
8232;SDS011;4157;48.074;9.952;2022-07-23T12:58:11;10.35;;;7.57;;
8232;SDS011;4157;48.074;9.952;2022-07-23T13:00:49;11.02;;;8.55;;
8232;SDS011;4157;48.074;9.952;2022-07-23T13:03:22;10.02;;;8.55;;
8232;SDS011;4157;48.074;9.952;2022-07-23T13:05:49;9.82;;;8.48;;
8232;SDS011;4157;48.074;9.952;2022-07-23T13:08:17;10.55;;;8.40;;
8232;SDS011;4157;48.074;9.952;2022-07-23T13:10:46;9.80;;;8.20;;
8232;SDS011;4157;48.074;9.952;2022-07-23T13:13:17;10.38;;;8.30;;
8232;SDS011;4157;48.074;9.952;2022-07-23T13:15:45;10.57;;;8.38;;
8232;SDS011;4157;48.074;9.952;2022-07-23T13:18:13;10.35;;;9.00;;
8232;SDS011;4157;48.074;9.952;2022-07-23T13:20:43;11.25;;;8.43;;
8232;SDS011;4157;48.074;9.952;2022-07-23T13:23:11;9.23;;;8.05;;
8232;SDS011;4157;48.074;9.952;2022-07-23T13:25:39;8.27;;;7.43;;
8232;SDS011;4157;48.074;9.952;2022-07-23T13:28:07;9.48;;;7.55;;
8232;SDS011;4157;48.074;9.952;2022-07-23T13:30:35;10.32;;;8.25;;
8232;SDS011;4157;48.074;9.952;2022-07-23T13:33:03;9.68;;;7.47;;
8232;SDS011;4157;48.074;9.952;2022-07-23T13:35:34;11.10;;;7.95;;
8232;SDS011;4157;48.074;9.952;2022-07-23T13:38:04;10.95;;;7.80;;
8232;SDS011;4157;48.074;9.952;2022-07-23T13:40:33;11.90;;;7.25;;
8232;SDS011;4157;48.074;9.952;2022-07-23T13:43:01;9.13;;;7.75;;
8232;SDS011;4157;48.074;9.952;2022-07-23T13:45:29;9.77;;;7.75;;
8232;SDS011;4157;48.074;9.952;2022-07-23T13:47:56;9.50;;;7.80;;
8232;SDS011;4157;48.074;9.952;2022-07-23T13:50:24;11.45;;;7.50;;
8232;SDS011;4157;48.074;9.952;2022-07-23T13:52:52;8.23;;;6.97;;
8232;SDS011;4157;48.074;9.952;2022-07-23T13:55:21;11.00;;;8.63;;
8232;SDS011;4157;48.074;9.952;2022-07-23T13:57:49;8.35;;;7.53;;
8232;SDS011;4157;48.074;9.952;2022-07-23T14:00:17;10.48;;;8.65;;
8232;SDS011;4157;48.074;9.952;2022-07-23T14:02:45;9.93;;;6.85;;
8232;SDS011;4157;48.074;9.952;2022-07-23T14:05:13;8.68;;;7.05;;
8232;SDS011;4157;48.074;9.952;2022-07-23T14:07:40;12.18;;;7.35;;
8232;SDS011;4157;48.074;9.952;2022-07-23T14:10:10;8.88;;;7.22;;
8232;SDS011;4157;48.074;9.952;2022-07-23T14:12:39;9.18;;;7.60;;
8232;SDS011;4157;48.074;9.952;2022-07-23T14:15:07;9.23;;;7.13;;
8232;SDS011;4157;48.074;9.952;2022-07-23T14:17:35;9.00;;;7.40;;
8232;SDS011;4157;48.074;9.952;2022-07-23T14:20:04;9.02;;;7.13;;
8232;SDS011;4157;48.074;9.952;2022-07-23T14:22:32;8.50;;;7.50;;
8232;SDS011;4157;48.074;9.952;2022-07-23T14:25:00;9.57;;;7.25;;
8232;SDS011;4157;48.074;9.952;2022-07-23T14:27:28;9.70;;;8.13;;
8232;SDS011;4157;48.074;9.952;2022-07-23T14:29:57;7.85;;;6.85;;
8232;SDS011;4157;48.074;9.952;2022-07-23T14:32:25;10.40;;;7.22;;
8232;SDS011;4157;48.074;9.952;2022-07-23T14:34:53;8.23;;;7.25;;
8232;SDS011;4157;48.074;9.952;2022-07-23T14:37:21;7.90;;;7.10;;
8232;SDS011;4157;48.074;9.952;2022-07-23T14:39:50;7.70;;;6.80;;
8232;SDS011;4157;48.074;9.952;2022-07-23T14:42:18;8.68;;;7.50;;
8232;SDS011;4157;48.074;9.952;2022-07-23T14:44:46;7.60;;;6.80;;
8232;SDS011;4157;48.074;9.952;2022-07-23T14:47:15;9.35;;;7.50;;
8232;SDS011;4157;48.074;9.952;2022-07-23T14:49:43;8.27;;;7.15;;
8232;SDS011;4157;48.074;9.952;2022-07-23T14:52:11;10.98;;;8.00;;
8232;SDS011;4157;48.074;9.952;2022-07-23T14:54:39;8.25;;;7.45;;
8232;SDS011;4157;48.074;9.952;2022-07-23T14:57:07;9.18;;;7.70;;
8232;SDS011;4157;48.074;9.952;2022-07-23T14:59:35;10.25;;;7.57;;
8232;SDS011;4157;48.074;9.952;2022-07-23T15:02:02;9.48;;;7.85;;
8232;SDS011;4157;48.074;9.952;2022-07-23T15:04:32;9.50;;;8.15;;
8232;SDS011;4157;48.074;9.952;2022-07-23T15:06:59;9.20;;;8.30;;
8232;SDS011;4157;48.074;9.952;2022-07-23T15:09:27;9.95;;;7.65;;
8232;SDS011;4157;48.074;9.952;2022-07-23T15:11:55;9.32;;;7.53;;
8232;SDS011;4157;48.074;9.952;2022-07-23T15:14:23;10.43;;;7.50;;
8232;SDS011;4157;48.074;9.952;2022-07-23T15:16:51;10.18;;;8.23;;
8232;SDS011;4157;48.074;9.952;2022-07-23T15:19:18;11.07;;;7.85;;
8232;SDS011;4157;48.074;9.952;2022-07-23T15:21:48;10.38;;;7.90;;
8232;SDS011;4157;48.074;9.952;2022-07-23T15:24:15;8.90;;;7.60;;
8232;SDS011;4157;48.074;9.952;2022-07-23T15:26:43;8.55;;;7.60;;
8232;SDS011;4157;48.074;9.952;2022-07-23T15:29:11;10.43;;;7.88;;
8232;SDS011;4157;48.074;9.952;2022-07-23T15:31:39;11.63;;;7.75;;